Terminal Aerodrome Forecast
Issued by NWS Bismarck, ND

Home | Current Version | Previous Version | Text Only | Print | Product List | Glossary On
Versions: 1 2 3 4 5 6 7 8 9 10 11 12 13 14 15 16 17 18
000
FTUS43 KBIS 170500
TAFBIS
TAF
KBIS 170520Z 1706/1806 07008KT P6SM SCT035 OVC070
     FM171200 11008KT P6SM BKN035 OVC060
     FM171800 14015G22KT P6SM BKN050 OVC080
     FM180300 12012KT P6SM BKN035 OVC070=

USA.gov is the U.S. government's official web portal to all federal, state and local government web resources and services.